sensor_id;sensor_type;location;lat;lon;timestamp;pressure;altitude;pressure_sealevel;temperature
79488;BMP180;68949;53.176;18.088;2024-03-02T00:00:40;99794.00;;;
79488;BMP180;68949;53.176;18.088;2024-03-02T00:03:27;99787.20;;;
79488;BMP180;68949;53.176;18.088;2024-03-02T00:05:54;99786.60;;;
79488;BMP180;68949;53.176;18.088;2024-03-02T00:08:25;99785.40;;;
79488;BMP180;68949;53.176;18.088;2024-03-02T00:10:59;99785.80;;;
79488;BMP180;68949;53.176;18.088;2024-03-02T00:13:26;99790.40;;;
79488;BMP180;68949;53.176;18.088;2024-03-02T00:15:56;99787.20;;;
79488;BMP180;68949;53.176;18.088;2024-03-02T00:18:34;99784.80;;;
79488;BMP180;68949;53.176;18.088;2024-03-02T00:21:03;99784.00;;;
79488;BMP180;68949;53.176;18.088;2024-03-02T00:23:31;99782.00;;;
79488;BMP180;68949;53.176;18.088;2024-03-02T00:25:59;99782.80;;;
79488;BMP180;68949;53.176;18.088;2024-03-02T00:28:32;99777.80;;;
79488;BMP180;68949;53.176;18.088;2024-03-02T00:31:13;99777.00;;;
79488;BMP180;68949;53.176;18.088;2024-03-02T00:33:49;99776.60;;;
79488;BMP180;68949;53.176;18.088;2024-03-02T00:36:24;99772.80;;;
79488;BMP180;68949;53.176;18.088;2024-03-02T00:38:53;99769.00;;;
79488;BMP180;68949;53.176;18.088;2024-03-02T00:41:31;99769.80;;;
79488;BMP180;68949;53.176;18.088;2024-03-02T00:44:06;99765.20;;;
79488;BMP180;68949;53.176;18.088;2024-03-02T00:46:36;99765.40;;;
79488;BMP180;68949;53.176;18.088;2024-03-02T00:49:11;99767.00;;;
79488;BMP180;68949;53.176;18.088;2024-03-02T00:51:41;99764.40;;;
79488;BMP180;68949;53.176;18.088;2024-03-02T00:54:09;99765.60;;;
79488;BMP180;68949;53.176;18.088;2024-03-02T00:56:36;99776.00;;;
79488;BMP180;68949;53.176;18.088;2024-03-02T00:59:04;99775.60;;;
79488;BMP180;68949;53.176;18.088;2024-03-02T01:01:30;99774.80;;;
79488;BMP180;68949;53.176;18.088;2024-03-02T01:04:00;99772.40;;;
79488;BMP180;68949;53.176;18.088;2024-03-02T01:06:26;99773.00;;;
79488;BMP180;68949;53.176;18.088;2024-03-02T01:08:54;99773.20;;;
79488;BMP180;68949;53.176;18.088;2024-03-02T01:11:21;99765.00;;;
79488;BMP180;68949;53.176;18.088;2024-03-02T01:13:52;99756.00;;;
79488;BMP180;68949;53.176;18.088;2024-03-02T01:16:18;99750.60;;;
79488;BMP180;68949;53.176;18.088;2024-03-02T01:18:45;99740.80;;;
79488;BMP180;68949;53.176;18.088;2024-03-02T01:21:12;99739.00;;;
79488;BMP180;68949;53.176;18.088;2024-03-02T01:23:39;99744.20;;;
79488;BMP180;68949;53.176;18.088;2024-03-02T01:26:06;99738.80;;;
79488;BMP180;68949;53.176;18.088;2024-03-02T01:28:33;99737.40;;;
79488;BMP180;68949;53.176;18.088;2024-03-02T01:31:00;99739.20;;;
79488;BMP180;68949;53.176;18.088;2024-03-02T01:33:28;99738.00;;;
79488;BMP180;68949;53.176;18.088;2024-03-02T01:35:55;99731.80;;;
79488;BMP180;68949;53.176;18.088;2024-03-02T01:38:22;99729.60;;;
79488;BMP180;68949;53.176;18.088;2024-03-02T01:40:48;99724.60;;;
79488;BMP180;68949;53.176;18.088;2024-03-02T01:43:15;99717.60;;;
79488;BMP180;68949;53.176;18.088;2024-03-02T01:45:42;99706.20;;;
79488;BMP180;68949;53.176;18.088;2024-03-02T01:48:09;99702.40;;;
79488;BMP180;68949;53.176;18.088;2024-03-02T01:50:36;99704.60;;;
79488;BMP180;68949;53.176;18.088;2024-03-02T01:53:03;99710.80;;;
79488;BMP180;68949;53.176;18.088;2024-03-02T01:55:29;99708.20;;;
79488;BMP180;68949;53.176;18.088;2024-03-02T01:57:57;99713.00;;;
79488;BMP180;68949;53.176;18.088;2024-03-02T02:00:24;99714.20;;;
79488;BMP180;68949;53.176;18.088;2024-03-02T02:02:53;99714.60;;;
79488;BMP180;68949;53.176;18.088;2024-03-02T02:05:21;99715.00;;;
79488;BMP180;68949;53.176;18.088;2024-03-02T02:07:49;99709.60;;;
79488;BMP180;68949;53.176;18.088;2024-03-02T02:10:16;99702.60;;;
79488;BMP180;68949;53.176;18.088;2024-03-02T02:12:42;99703.80;;;
79488;BMP180;68949;53.176;18.088;2024-03-02T02:15:27;99717.20;;;
79488;BMP180;68949;53.176;18.088;2024-03-02T02:17:58;99708.60;;;
79488;BMP180;68949;53.176;18.088;2024-03-02T02:20:25;99701.80;;;
79488;BMP180;68949;53.176;18.088;2024-03-02T02:22:58;99705.80;;;
79488;BMP180;68949;53.176;18.088;2024-03-02T02:25:26;99706.20;;;
79488;BMP180;68949;53.176;18.088;2024-03-02T02:27:55;99702.20;;;
79488;BMP180;68949;53.176;18.088;2024-03-02T02:30:29;99700.60;;;
79488;BMP180;68949;53.176;18.088;2024-03-02T02:32:56;99707.00;;;
79488;BMP180;68949;53.176;18.088;2024-03-02T02:35:23;99706.80;;;
79488;BMP180;68949;53.176;18.088;2024-03-02T02:37:55;99709.80;;;
79488;BMP180;68949;53.176;18.088;2024-03-02T02:40:23;99707.60;;;
79488;BMP180;68949;53.176;18.088;2024-03-02T02:42:50;99706.20;;;
79488;BMP180;68949;53.176;18.088;2024-03-02T02:45:20;99707.60;;;
79488;BMP180;68949;53.176;18.088;2024-03-02T02:47:46;99706.40;;;
79488;BMP180;68949;53.176;18.088;2024-03-02T02:50:14;99709.40;;;
79488;BMP180;68949;53.176;18.088;2024-03-02T02:52:42;99702.80;;;
79488;BMP180;68949;53.176;18.088;2024-03-02T02:55:12;99708.00;;;
79488;BMP180;68949;53.176;18.088;2024-03-02T02:57:42;99698.60;;;
79488;BMP180;68949;53.176;18.088;2024-03-02T03:00:17;99697.00;;;
79488;BMP180;68949;53.176;18.088;2024-03-02T03:02:48;99698.40;;;
79488;BMP180;68949;53.176;18.088;2024-03-02T03:05:15;99700.00;;;
79488;BMP180;68949;53.176;18.088;2024-03-02T03:07:43;99694.20;;;
79488;BMP180;68949;53.176;18.088;2024-03-02T03:10:11;99700.40;;;
79488;BMP180;68949;53.176;18.088;2024-03-02T03:12:38;99704.40;;;
79488;BMP180;68949;53.176;18.088;2024-03-02T03:15:05;99705.00;;;
79488;BMP180;68949;53.176;18.088;2024-03-02T03:17:34;99698.20;;;
79488;BMP180;68949;53.176;18.088;2024-03-02T03:20:02;99697.80;;;
79488;BMP180;68949;53.176;18.088;2024-03-02T03:22:31;99700.20;;;
79488;BMP180;68949;53.176;18.088;2024-03-02T03:25:01;99700.40;;;
79488;BMP180;68949;53.176;18.088;2024-03-02T03:27:32;99707.40;;;
79488;BMP180;68949;53.176;18.088;2024-03-02T03:29:59;99702.60;;;
79488;BMP180;68949;53.176;18.088;2024-03-02T03:32:26;99694.40;;;
79488;BMP180;68949;53.176;18.088;2024-03-02T03:34:54;99697.80;;;
79488;BMP180;68949;53.176;18.088;2024-03-02T03:37:22;99694.40;;;
79488;BMP180;68949;53.176;18.088;2024-03-02T03:39:51;99698.60;;;
79488;BMP180;68949;53.176;18.088;2024-03-02T03:42:20;99694.40;;;
79488;BMP180;68949;53.176;18.088;2024-03-02T03:44:47;99696.20;;;
79488;BMP180;68949;53.176;18.088;2024-03-02T03:47:14;99690.20;;;
79488;BMP180;68949;53.176;18.088;2024-03-02T03:49:40;99680.40;;;
79488;BMP180;68949;53.176;18.088;2024-03-02T03:52:07;99677.80;;;
79488;BMP180;68949;53.176;18.088;2024-03-02T03:54:35;99676.60;;;
79488;BMP180;68949;53.176;18.088;2024-03-02T03:57:04;99683.60;;;
79488;BMP180;68949;53.176;18.088;2024-03-02T03:59:31;99681.00;;;
79488;BMP180;68949;53.176;18.088;2024-03-02T04:01:58;99681.60;;;
79488;BMP180;68949;53.176;18.088;2024-03-02T04:04:24;99682.00;;;
79488;BMP180;68949;53.176;18.088;2024-03-02T04:06:51;99679.00;;;
79488;BMP180;68949;53.176;18.088;2024-03-02T04:09:18;99674.60;;;
79488;BMP180;68949;53.176;18.088;2024-03-02T04:11:45;99673.20;;;
79488;BMP180;68949;53.176;18.088;2024-03-02T04:14:12;99668.40;;;
79488;BMP180;68949;53.176;18.088;2024-03-02T04:16:39;99669.60;;;
79488;BMP180;68949;53.176;18.088;2024-03-02T04:19:06;99671.60;;;
79488;BMP180;68949;53.176;18.088;2024-03-02T04:21:34;99668.40;;;
79488;BMP180;68949;53.176;18.088;2024-03-02T04:24:02;99669.20;;;
79488;BMP180;68949;53.176;18.088;2024-03-02T04:26:28;99669.00;;;
79488;BMP180;68949;53.176;18.088;2024-03-02T04:28:55;99668.40;;;
79488;BMP180;68949;53.176;18.088;2024-03-02T04:31:22;99665.60;;;
79488;BMP180;68949;53.176;18.088;2024-03-02T04:33:49;99665.40;;;
79488;BMP180;68949;53.176;18.088;2024-03-02T04:36:16;99668.80;;;
79488;BMP180;68949;53.176;18.088;2024-03-02T04:38:43;99664.00;;;
79488;BMP180;68949;53.176;18.088;2024-03-02T04:41:12;99662.60;;;
79488;BMP180;68949;53.176;18.088;2024-03-02T04:43:41;99651.60;;;
79488;BMP180;68949;53.176;18.088;2024-03-02T04:46:07;99646.20;;;
79488;BMP180;68949;53.176;18.088;2024-03-02T04:48:36;99652.60;;;
79488;BMP180;68949;53.176;18.088;2024-03-02T04:51:03;99658.20;;;
79488;BMP180;68949;53.176;18.088;2024-03-02T04:53:32;99668.00;;;
79488;BMP180;68949;53.176;18.088;2024-03-02T04:56:00;99676.40;;;
79488;BMP180;68949;53.176;18.088;2024-03-02T04:58:48;99661.00;;;
79488;BMP180;68949;53.176;18.088;2024-03-02T05:01:15;99669.20;;;
79488;BMP180;68949;53.176;18.088;2024-03-02T05:03:45;99666.20;;;
79488;BMP180;68949;53.176;18.088;2024-03-02T05:06:15;99672.60;;;
79488;BMP180;68949;53.176;18.088;2024-03-02T05:08:42;99681.00;;;
79488;BMP180;68949;53.176;18.088;2024-03-02T05:11:11;99685.20;;;
79488;BMP180;68949;53.176;18.088;2024-03-02T05:13:57;99693.60;;;
79488;BMP180;68949;53.176;18.088;2024-03-02T05:16:24;99692.80;;;
79488;BMP180;68949;53.176;18.088;2024-03-02T05:18:52;99699.40;;;
79488;BMP180;68949;53.176;18.088;2024-03-02T05:21:19;99707.80;;;
79488;BMP180;68949;53.176;18.088;2024-03-02T05:23:45;99711.40;;;
79488;BMP180;68949;53.176;18.088;2024-03-02T05:26:12;99713.20;;;
79488;BMP180;68949;53.176;18.088;2024-03-02T05:28:39;99710.00;;;
79488;BMP180;68949;53.176;18.088;2024-03-02T05:31:06;99708.60;;;
79488;BMP180;68949;53.176;18.088;2024-03-02T05:33:33;99706.80;;;
79488;BMP180;68949;53.176;18.088;2024-03-02T05:36:00;99712.80;;;
79488;BMP180;68949;53.176;18.088;2024-03-02T05:38:28;99704.40;;;
79488;BMP180;68949;53.176;18.088;2024-03-02T05:40:55;99707.60;;;
79488;BMP180;68949;53.176;18.088;2024-03-02T05:43:21;99700.40;;;
79488;BMP180;68949;53.176;18.088;2024-03-02T05:45:49;99708.00;;;
79488;BMP180;68949;53.176;18.088;2024-03-02T05:48:15;99711.60;;;
79488;BMP180;68949;53.176;18.088;2024-03-02T05:50:42;99708.60;;;
79488;BMP180;68949;53.176;18.088;2024-03-02T05:53:09;99717.20;;;
79488;BMP180;68949;53.176;18.088;2024-03-02T05:55:36;99722.00;;;
79488;BMP180;68949;53.176;18.088;2024-03-02T05:58:03;99713.60;;;
79488;BMP180;68949;53.176;18.088;2024-03-02T06:00:33;99732.60;;;
79488;BMP180;68949;53.176;18.088;2024-03-02T06:02:59;99736.80;;;
79488;BMP180;68949;53.176;18.088;2024-03-02T06:05:26;99735.20;;;
79488;BMP180;68949;53.176;18.088;2024-03-02T06:07:53;99733.20;;;
79488;BMP180;68949;53.176;18.088;2024-03-02T06:10:20;99733.60;;;
79488;BMP180;68949;53.176;18.088;2024-03-02T06:12:47;99729.40;;;
79488;BMP180;68949;53.176;18.088;2024-03-02T06:15:14;99731.60;;;
79488;BMP180;68949;53.176;18.088;2024-03-02T06:17:41;99736.40;;;
79488;BMP180;68949;53.176;18.088;2024-03-02T06:20:08;99735.40;;;
79488;BMP180;68949;53.176;18.088;2024-03-02T06:22:35;99741.80;;;
79488;BMP180;68949;53.176;18.088;2024-03-02T06:25:02;99743.40;;;
79488;BMP180;68949;53.176;18.088;2024-03-02T06:27:29;99743.40;;;
79488;BMP180;68949;53.176;18.088;2024-03-02T06:29:55;99743.00;;;
79488;BMP180;68949;53.176;18.088;2024-03-02T06:32:22;99742.20;;;
79488;BMP180;68949;53.176;18.088;2024-03-02T06:34:51;99739.60;;;
79488;BMP180;68949;53.176;18.088;2024-03-02T06:37:18;99741.00;;;
79488;BMP180;68949;53.176;18.088;2024-03-02T06:39:45;99744.00;;;
79488;BMP180;68949;53.176;18.088;2024-03-02T06:42:12;99745.20;;;
79488;BMP180;68949;53.176;18.088;2024-03-02T06:44:38;99741.60;;;
79488;BMP180;68949;53.176;18.088;2024-03-02T06:47:05;99747.80;;;
79488;BMP180;68949;53.176;18.088;2024-03-02T06:49:33;99743.60;;;
79488;BMP180;68949;53.176;18.088;2024-03-02T06:52:01;99743.00;;;
79488;BMP180;68949;53.176;18.088;2024-03-02T06:54:27;99740.20;;;
79488;BMP180;68949;53.176;18.088;2024-03-02T06:56:54;99738.80;;;
79488;BMP180;68949;53.176;18.088;2024-03-02T06:59:20;99730.80;;;
79488;BMP180;68949;53.176;18.088;2024-03-02T07:01:47;99722.60;;;
79488;BMP180;68949;53.176;18.088;2024-03-02T07:04:15;99721.60;;;
79488;BMP180;68949;53.176;18.088;2024-03-02T07:06:42;99719.40;;;
79488;BMP180;68949;53.176;18.088;2024-03-02T07:09:09;99727.00;;;
79488;BMP180;68949;53.176;18.088;2024-03-02T07:11:37;99733.20;;;
79488;BMP180;68949;53.176;18.088;2024-03-02T07:14:05;99739.00;;;
79488;BMP180;68949;53.176;18.088;2024-03-02T07:16:32;99742.20;;;
79488;BMP180;68949;53.176;18.088;2024-03-02T07:19:01;99739.40;;;
79488;BMP180;68949;53.176;18.088;2024-03-02T07:21:31;99741.20;;;
79488;BMP180;68949;53.176;18.088;2024-03-02T07:23:59;99740.60;;;
79488;BMP180;68949;53.176;18.088;2024-03-02T07:26:27;99739.40;;;
79488;BMP180;68949;53.176;18.088;2024-03-02T07:28:53;99737.80;;;
79488;BMP180;68949;53.176;18.088;2024-03-02T07:31:21;99740.00;;;
79488;BMP180;68949;53.176;18.088;2024-03-02T07:33:48;99741.20;;;
79488;BMP180;68949;53.176;18.088;2024-03-02T07:36:15;99748.20;;;
79488;BMP180;68949;53.176;18.088;2024-03-02T07:38:43;99760.60;;;
79488;BMP180;68949;53.176;18.088;2024-03-02T07:41:11;99774.20;;;
79488;BMP180;68949;53.176;18.088;2024-03-02T07:43:38;99766.40;;;
79488;BMP180;68949;53.176;18.088;2024-03-02T07:46:05;99766.20;;;
79488;BMP180;68949;53.176;18.088;2024-03-02T07:48:32;99760.60;;;
79488;BMP180;68949;53.176;18.088;2024-03-02T07:50:59;99758.80;;;
79488;BMP180;68949;53.176;18.088;2024-03-02T07:53:26;99750.60;;;
79488;BMP180;68949;53.176;18.088;2024-03-02T07:55:53;99747.00;;;
79488;BMP180;68949;53.176;18.088;2024-03-02T07:58:20;99753.00;;;
79488;BMP180;68949;53.176;18.088;2024-03-02T08:00:48;99750.60;;;
79488;BMP180;68949;53.176;18.088;2024-03-02T08:03:14;99744.20;;;
79488;BMP180;68949;53.176;18.088;2024-03-02T08:05:41;99749.40;;;
79488;BMP180;68949;53.176;18.088;2024-03-02T08:08:08;99752.00;;;
79488;BMP180;68949;53.176;18.088;2024-03-02T08:10:35;99747.60;;;
79488;BMP180;68949;53.176;18.088;2024-03-02T08:13:02;99759.80;;;
79488;BMP180;68949;53.176;18.088;2024-03-02T08:15:29;99754.00;;;
79488;BMP180;68949;53.176;18.088;2024-03-02T08:17:55;99753.00;;;
79488;BMP180;68949;53.176;18.088;2024-03-02T08:20:22;99760.60;;;
79488;BMP180;68949;53.176;18.088;2024-03-02T08:22:49;99759.80;;;
79488;BMP180;68949;53.176;18.088;2024-03-02T08:25:17;99765.60;;;
79488;BMP180;68949;53.176;18.088;2024-03-02T08:27:44;99760.60;;;
79488;BMP180;68949;53.176;18.088;2024-03-02T08:30:12;99769.80;;;
79488;BMP180;68949;53.176;18.088;2024-03-02T08:32:39;99769.60;;;
79488;BMP180;68949;53.176;18.088;2024-03-02T08:35:07;99768.00;;;
79488;BMP180;68949;53.176;18.088;2024-03-02T08:37:34;99770.00;;;
79488;BMP180;68949;53.176;18.088;2024-03-02T08:40:01;99768.60;;;
79488;BMP180;68949;53.176;18.088;2024-03-02T08:42:28;99754.40;;;
79488;BMP180;68949;53.176;18.088;2024-03-02T08:44:55;99755.60;;;
79488;BMP180;68949;53.176;18.088;2024-03-02T08:47:22;99758.20;;;
79488;BMP180;68949;53.176;18.088;2024-03-02T08:49:49;99759.20;;;
79488;BMP180;68949;53.176;18.088;2024-03-02T08:52:16;99760.00;;;
79488;BMP180;68949;53.176;18.088;2024-03-02T08:54:44;99768.20;;;
79488;BMP180;68949;53.176;18.088;2024-03-02T08:57:10;99771.20;;;
79488;BMP180;68949;53.176;18.088;2024-03-02T08:59:37;99763.80;;;
79488;BMP180;68949;53.176;18.088;2024-03-02T09:02:04;99770.00;;;
79488;BMP180;68949;53.176;18.088;2024-03-02T09:04:31;99782.60;;;
79488;BMP180;68949;53.176;18.088;2024-03-02T09:06:57;99778.20;;;
79488;BMP180;68949;53.176;18.088;2024-03-02T09:09:24;99785.00;;;
79488;BMP180;68949;53.176;18.088;2024-03-02T09:11:51;99790.60;;;
79488;BMP180;68949;53.176;18.088;2024-03-02T09:14:17;99795.40;;;
79488;BMP180;68949;53.176;18.088;2024-03-02T09:16:44;99799.20;;;
79488;BMP180;68949;53.176;18.088;2024-03-02T09:19:11;99796.00;;;
79488;BMP180;68949;53.176;18.088;2024-03-02T09:21:37;99786.40;;;
79488;BMP180;68949;53.176;18.088;2024-03-02T09:24:05;99788.40;;;
79488;BMP180;68949;53.176;18.088;2024-03-02T09:26:33;99788.00;;;
79488;BMP180;68949;53.176;18.088;2024-03-02T09:29:00;99787.60;;;
79488;BMP180;68949;53.176;18.088;2024-03-02T09:31:29;99785.80;;;
79488;BMP180;68949;53.176;18.088;2024-03-02T09:33:57;99788.20;;;
79488;BMP180;68949;53.176;18.088;2024-03-02T09:36:24;99783.00;;;
79488;BMP180;68949;53.176;18.088;2024-03-02T09:38:51;99785.60;;;
79488;BMP180;68949;53.176;18.088;2024-03-02T09:41:18;99769.80;;;
79488;BMP180;68949;53.176;18.088;2024-03-02T09:43:48;99779.60;;;
79488;BMP180;68949;53.176;18.088;2024-03-02T09:46:15;99783.60;;;
79488;BMP180;68949;53.176;18.088;2024-03-02T09:48:44;99775.00;;;
79488;BMP180;68949;53.176;18.088;2024-03-02T09:51:12;99781.40;;;
79488;BMP180;68949;53.176;18.088;2024-03-02T09:53:42;99786.40;;;
79488;BMP180;68949;53.176;18.088;2024-03-02T09:56:09;99783.00;;;
79488;BMP180;68949;53.176;18.088;2024-03-02T09:58:36;99789.40;;;
79488;BMP180;68949;53.176;18.088;2024-03-02T10:01:06;99785.40;;;
79488;BMP180;68949;53.176;18.088;2024-03-02T10:03:33;99785.00;;;
79488;BMP180;68949;53.176;18.088;2024-03-02T10:06:24;99789.00;;;
79488;BMP180;68949;53.176;18.088;2024-03-02T10:08:53;99792.00;;;
79488;BMP180;68949;53.176;18.088;2024-03-02T10:11:33;99795.00;;;
79488;BMP180;68949;53.176;18.088;2024-03-02T10:14:12;99794.60;;;
79488;BMP180;68949;53.176;18.088;2024-03-02T10:16:42;99792.60;;;
79488;BMP180;68949;53.176;18.088;2024-03-02T10:19:23;99787.80;;;
79488;BMP180;68949;53.176;18.088;2024-03-02T10:21:52;99784.20;;;
79488;BMP180;68949;53.176;18.088;2024-03-02T10:24:21;99781.40;;;
79488;BMP180;68949;53.176;18.088;2024-03-02T10:26:50;99771.80;;;
79488;BMP180;68949;53.176;18.088;2024-03-02T10:29:18;99771.40;;;
79488;BMP180;68949;53.176;18.088;2024-03-02T10:31:46;99773.60;;;
79488;BMP180;68949;53.176;18.088;2024-03-02T10:34:14;99775.00;;;
79488;BMP180;68949;53.176;18.088;2024-03-02T10:36:44;99768.60;;;
79488;BMP180;68949;53.176;18.088;2024-03-02T10:39:14;99763.40;;;
79488;BMP180;68949;53.176;18.088;2024-03-02T10:41:41;99756.00;;;
79488;BMP180;68949;53.176;18.088;2024-03-02T10:44:09;99764.00;;;
79488;BMP180;68949;53.176;18.088;2024-03-02T10:46:37;99759.40;;;
79488;BMP180;68949;53.176;18.088;2024-03-02T10:49:06;99754.80;;;
79488;BMP180;68949;53.176;18.088;2024-03-02T10:51:34;99760.60;;;
79488;BMP180;68949;53.176;18.088;2024-03-02T10:54:04;99763.20;;;
79488;BMP180;68949;53.176;18.088;2024-03-02T10:56:34;99758.20;;;
79488;BMP180;68949;53.176;18.088;2024-03-02T11:02:02;99739.80;;;
79488;BMP180;68949;53.176;18.088;2024-03-02T11:04:31;99749.20;;;
79488;BMP180;68949;53.176;18.088;2024-03-02T11:07:07;99753.60;;;
79488;BMP180;68949;53.176;18.088;2024-03-02T11:09:40;99748.20;;;
79488;BMP180;68949;53.176;18.088;2024-03-02T11:12:36;99735.80;;;
79488;BMP180;68949;53.176;18.088;2024-03-02T11:15:10;99735.60;;;
79488;BMP180;68949;53.176;18.088;2024-03-02T11:17:40;99743.00;;;
79488;BMP180;68949;53.176;18.088;2024-03-02T11:20:08;99735.80;;;
79488;BMP180;68949;53.176;18.088;2024-03-02T11:22:36;99739.60;;;
79488;BMP180;68949;53.176;18.088;2024-03-02T11:25:04;99740.60;;;
79488;BMP180;68949;53.176;18.088;2024-03-02T11:35:41;99735.60;;;
79488;BMP180;68949;53.176;18.088;2024-03-02T11:38:15;99737.20;;;
79488;BMP180;68949;53.176;18.088;2024-03-02T11:40:42;99732.60;;;
79488;BMP180;68949;53.176;18.088;2024-03-02T11:43:10;99734.80;;;
79488;BMP180;68949;53.176;18.088;2024-03-02T11:45:37;99733.60;;;
79488;BMP180;68949;53.176;18.088;2024-03-02T11:48:14;99737.80;;;
79488;BMP180;68949;53.176;18.088;2024-03-02T11:50:47;99727.20;;;
79488;BMP180;68949;53.176;18.088;2024-03-02T11:53:17;99725.60;;;
79488;BMP180;68949;53.176;18.088;2024-03-02T11:55:45;99725.20;;;
79488;BMP180;68949;53.176;18.088;2024-03-02T11:58:16;99721.40;;;
79488;BMP180;68949;53.176;18.088;2024-03-02T12:00:44;99709.00;;;
79488;BMP180;68949;53.176;18.088;2024-03-02T12:03:14;99706.20;;;
79488;BMP180;68949;53.176;18.088;2024-03-02T12:05:42;99710.40;;;
79488;BMP180;68949;53.176;18.088;2024-03-02T12:08:14;99714.60;;;
79488;BMP180;68949;53.176;18.088;2024-03-02T12:10:55;99722.60;;;
79488;BMP180;68949;53.176;18.088;2024-03-02T12:13:26;99713.60;;;
79488;BMP180;68949;53.176;18.088;2024-03-02T12:15:54;99719.80;;;
79488;BMP180;68949;53.176;18.088;2024-03-02T12:18:22;99708.20;;;
79488;BMP180;68949;53.176;18.088;2024-03-02T12:20:51;99708.00;;;
79488;BMP180;68949;53.176;18.088;2024-03-02T12:23:25;99708.60;;;
79488;BMP180;68949;53.176;18.088;2024-03-02T12:25:52;99705.00;;;
79488;BMP180;68949;53.176;18.088;2024-03-02T12:28:19;99705.60;;;
79488;BMP180;68949;53.176;18.088;2024-03-02T12:30:46;99715.00;;;
79488;BMP180;68949;53.176;18.088;2024-03-02T12:33:14;99701.00;;;
79488;BMP180;68949;53.176;18.088;2024-03-02T12:35:41;99701.80;;;
79488;BMP180;68949;53.176;18.088;2024-03-02T12:38:09;99702.80;;;
79488;BMP180;68949;53.176;18.088;2024-03-02T12:40:37;99698.80;;;
79488;BMP180;68949;53.176;18.088;2024-03-02T12:43:05;99699.60;;;
79488;BMP180;68949;53.176;18.088;2024-03-02T12:45:34;99701.60;;;
79488;BMP180;68949;53.176;18.088;2024-03-02T12:48:02;99712.20;;;
79488;BMP180;68949;53.176;18.088;2024-03-02T12:50:30;99711.80;;;
79488;BMP180;68949;53.176;18.088;2024-03-02T12:52:57;99720.00;;;
79488;BMP180;68949;53.176;18.088;2024-03-02T12:55:24;99718.40;;;
79488;BMP180;68949;53.176;18.088;2024-03-02T12:57:52;99712.20;;;
79488;BMP180;68949;53.176;18.088;2024-03-02T13:00:20;99714.00;;;
79488;BMP180;68949;53.176;18.088;2024-03-02T13:02:48;99703.80;;;
79488;BMP180;68949;53.176;18.088;2024-03-02T13:05:17;99710.80;;;
79488;BMP180;68949;53.176;18.088;2024-03-02T13:07:47;99717.60;;;
79488;BMP180;68949;53.176;18.088;2024-03-02T13:10:15;99723.00;;;
79488;BMP180;68949;53.176;18.088;2024-03-02T13:12:42;99715.00;;;
79488;BMP180;68949;53.176;18.088;2024-03-02T13:15:09;99721.80;;;
79488;BMP180;68949;53.176;18.088;2024-03-02T13:17:37;99724.80;;;
79488;BMP180;68949;53.176;18.088;2024-03-02T13:20:06;99722.80;;;
79488;BMP180;68949;53.176;18.088;2024-03-02T13:22:37;99726.60;;;
79488;BMP180;68949;53.176;18.088;2024-03-02T13:25:04;99722.80;;;
79488;BMP180;68949;53.176;18.088;2024-03-02T13:27:33;99724.20;;;
79488;BMP180;68949;53.176;18.088;2024-03-02T13:30:02;99729.00;;;
79488;BMP180;68949;53.176;18.088;2024-03-02T13:32:29;99731.80;;;
79488;BMP180;68949;53.176;18.088;2024-03-02T13:34:56;99727.80;;;
79488;BMP180;68949;53.176;18.088;2024-03-02T13:37:23;99739.60;;;
79488;BMP180;68949;53.176;18.088;2024-03-02T13:39:50;99734.20;;;
79488;BMP180;68949;53.176;18.088;2024-03-02T13:42:17;99735.80;;;
79488;BMP180;68949;53.176;18.088;2024-03-02T13:44:44;99731.20;;;
79488;BMP180;68949;53.176;18.088;2024-03-02T13:47:13;99729.40;;;
79488;BMP180;68949;53.176;18.088;2024-03-02T13:49:42;99725.60;;;
79488;BMP180;68949;53.176;18.088;2024-03-02T13:52:13;99733.40;;;
79488;BMP180;68949;53.176;18.088;2024-03-02T13:54:41;99733.00;;;
79488;BMP180;68949;53.176;18.088;2024-03-02T13:57:10;99738.40;;;
79488;BMP180;68949;53.176;18.088;2024-03-02T13:59:38;99734.60;;;
79488;BMP180;68949;53.176;18.088;2024-03-02T14:02:05;99735.80;;;
79488;BMP180;68949;53.176;18.088;2024-03-02T14:04:36;99735.00;;;
79488;BMP180;68949;53.176;18.088;2024-03-02T14:07:03;99739.80;;;
79488;BMP180;68949;53.176;18.088;2024-03-02T14:09:31;99750.20;;;
79488;BMP180;68949;53.176;18.088;2024-03-02T14:11:58;99747.40;;;
79488;BMP180;68949;53.176;18.088;2024-03-02T14:14:27;99745.20;;;
79488;BMP180;68949;53.176;18.088;2024-03-02T14:16:57;99746.60;;;
79488;BMP180;68949;53.176;18.088;2024-03-02T14:19:32;99755.20;;;
79488;BMP180;68949;53.176;18.088;2024-03-02T14:21:59;99751.60;;;
79488;BMP180;68949;53.176;18.088;2024-03-02T14:24:27;99757.00;;;
79488;BMP180;68949;53.176;18.088;2024-03-02T14:26:57;99756.00;;;
79488;BMP180;68949;53.176;18.088;2024-03-02T14:29:26;99756.80;;;
79488;BMP180;68949;53.176;18.088;2024-03-02T14:31:53;99759.40;;;
79488;BMP180;68949;53.176;18.088;2024-03-02T14:34:20;99765.40;;;
79488;BMP180;68949;53.176;18.088;2024-03-02T14:36:47;99765.40;;;
79488;BMP180;68949;53.176;18.088;2024-03-02T14:39:13;99765.60;;;
79488;BMP180;68949;53.176;18.088;2024-03-02T14:41:40;99766.20;;;
79488;BMP180;68949;53.176;18.088;2024-03-02T14:44:07;99774.40;;;
79488;BMP180;68949;53.176;18.088;2024-03-02T14:46:36;99775.80;;;
79488;BMP180;68949;53.176;18.088;2024-03-02T14:49:07;99777.80;;;
79488;BMP180;68949;53.176;18.088;2024-03-02T14:51:34;99773.20;;;
79488;BMP180;68949;53.176;18.088;2024-03-02T14:54:02;99775.00;;;
79488;BMP180;68949;53.176;18.088;2024-03-02T14:56:29;99774.40;;;
79488;BMP180;68949;53.176;18.088;2024-03-02T14:58:59;99771.80;;;
79488;BMP180;68949;53.176;18.088;2024-03-02T15:01:46;99772.20;;;
79488;BMP180;68949;53.176;18.088;2024-03-02T15:04:15;99772.80;;;
79488;BMP180;68949;53.176;18.088;2024-03-02T15:06:43;99780.20;;;
79488;BMP180;68949;53.176;18.088;2024-03-02T15:09:09;99782.00;;;
79488;BMP180;68949;53.176;18.088;2024-03-02T15:11:36;99775.40;;;
79488;BMP180;68949;53.176;18.088;2024-03-02T15:14:03;99775.60;;;
79488;BMP180;68949;53.176;18.088;2024-03-02T15:16:30;99776.40;;;
79488;BMP180;68949;53.176;18.088;2024-03-02T15:18:56;99776.80;;;